Time;durP1;ratioP1;P1;durP2;ratioP2;P2;SDS_P1;SDS_P2;PMS_P1;PMS_P2;Temp;Humidity;BMP_temperature;BMP_pressure;BME280_temperature;BME280_humidity;BME280_pressure;Samples;Min_cycle;Max_cycle;Signal;HPM_P1;HPM_P2
2023/09/13 00:01:59;;;;;;;23.15;17.48;;;;;;;23.15;54.13;100034.00;5051062;28;20248;-65
2023/09/13 00:04:27;;;;;;;18.50;16.38;;;;;;;23.13;53.90;100033.28;5055120;28;20309;-64
2023/09/13 00:06:58;;;;;;;19.73;17.40;;;;;;;23.13;53.97;100033.28;5054825;28;20206;-64
2023/09/13 00:09:26;;;;;;;18.73;16.73;;;;;;;23.10;54.03;100028.22;5053459;28;20323;-65
2023/09/13 00:11:54;;;;;;;18.77;16.88;;;;;;;23.07;53.99;100025.78;5046091;28;20202;-65
2023/09/13 00:14:23;;;;;;;20.92;16.98;;;;;;;23.02;54.13;100025.25;5054891;28;20202;-64
2023/09/13 00:16:52;;;;;;;19.33;17.25;;;;;;;23.00;54.46;100019.22;5054854;28;20728;-64
2023/09/13 00:19:20;;;;;;;19.65;16.77;;;;;;;22.99;54.45;100012.28;5055778;28;20691;-69
2023/09/13 00:21:49;;;;;;;18.73;16.25;;;;;;;22.97;54.73;100022.03;5055185;28;20209;-69
2023/09/13 00:24:19;;;;;;;25.13;17.60;;;;;;;22.97;54.74;100014.16;5048741;28;20226;-68
2023/09/13 00:26:47;;;;;;;19.70;16.58;;;;;;;22.99;54.97;100014.06;5043930;28;20217;-71
2023/09/13 00:29:16;;;;;;;18.48;16.67;;;;;;;22.98;54.80;100010.59;5039613;28;20226;-69
2023/09/13 00:31:44;;;;;;;18.50;16.60;;;;;;;22.96;54.87;100015.09;5042473;28;20210;-69
2023/09/13 00:34:12;;;;;;;18.55;16.60;;;;;;;22.92;54.76;100013.63;5049076;28;20241;-70
2023/09/13 00:36:40;;;;;;;19.40;17.45;;;;;;;22.87;55.24;100010.41;5026128;28;20209;-71
2023/09/13 00:39:08;;;;;;;18.80;16.83;;;;;;;22.85;55.25;100012.28;5054682;28;20206;-67
2023/09/13 00:41:37;;;;;;;20.73;18.50;;;;;;;22.84;55.41;100013.22;5053027;28;20210;-68
2023/09/13 00:44:05;;;;;;;19.27;17.33;;;;;;;22.82;55.41;100007.22;5054787;28;20210;-68
2023/09/13 00:46:35;;;;;;;20.50;18.50;;;;;;;22.79;55.63;100010.03;5054290;28;20198;-68
2023/09/13 00:49:03;;;;;;;20.88;17.45;;;;;;;22.75;55.69;100006.75;5054410;28;20259;-70
2023/09/13 00:51:32;;;;;;;21.70;17.52;;;;;;;22.75;55.79;100011.16;5054223;28;20228;-72
2023/09/13 00:54:04;;;;;;;20.30;18.20;;;;;;;22.72;55.79;100006.97;5054729;28;20243;-70
2023/09/13 00:56:32;;;;;;;20.23;18.23;;;;;;;22.65;56.05;100011.75;5054341;28;20202;-68
2023/09/13 00:59:03;;;;;;;19.75;17.85;;;;;;;22.61;56.34;100007.63;5046272;28;20210;-70
2023/09/13 01:01:34;;;;;;;20.35;17.70;;;;;;;22.57;56.44;100003.50;5035015;28;20207;-70
2023/09/13 01:04:03;;;;;;;19.75;17.75;;;;;;;22.53;56.44;100012.50;5053918;28;20198;-69
2023/09/13 01:06:31;;;;;;;19.85;17.55;;;;;;;22.51;56.45;100008.28;5040159;28;20210;-69
2023/09/13 01:09:00;;;;;;;22.25;17.83;;;;;;;22.50;56.37;100010.09;5044652;28;20198;-72
2023/09/13 01:11:30;;;;;;;21.33;17.63;;;;;;;22.48;56.54;100011.09;5038830;28;20218;-70
2023/09/13 01:22:51;;;;;;;21.50;17.77;;;;;;;22.22;57.51;100007.44;5045174;22;20243;-58
2023/09/13 01:25:50;;;;;;;21.80;18.25;;;;;;;22.22;57.93;100002.19;5019154;28;20726;-59
2023/09/13 01:28:35;;;;;;;19.60;17.15;;;;;;;22.24;58.07;100006.41;5014409;28;20207;-58
2023/09/13 01:31:06;;;;;;;19.95;17.85;;;;;;;22.31;57.98;100009.50;5000814;28;20215;-59
2023/09/13 01:33:34;;;;;;;19.85;17.85;;;;;;;22.33;58.01;100010.25;5012110;28;20211;-59
2023/09/13 01:36:02;;;;;;;20.23;17.70;;;;;;;22.34;58.08;100014.56;5013728;28;20195;-59
2023/09/13 01:38:31;;;;;;;20.60;18.55;;;;;;;22.30;57.54;100011.28;5014250;28;20985;-59
2023/09/13 01:41:07;;;;;;;20.17;17.80;;;;;;;22.26;56.50;100020.28;5013821;28;20563;-60
2023/09/13 01:43:37;;;;;;;20.52;18.15;;;;;;;22.22;56.89;100007.44;5013766;28;20570;-59
2023/09/13 01:46:06;;;;;;;20.98;17.98;;;;;;;22.23;56.57;100009.13;5013694;28;20206;-59
2023/09/13 01:48:35;;;;;;;21.92;18.15;;;;;;;22.14;57.25;100011.38;5005259;28;20660;-61
2023/09/13 01:51:04;;;;;;;21.15;18.95;;;;;;;22.08;57.85;100014.31;5010545;28;20216;-60
2023/09/13 01:53:32;;;;;;;20.05;17.98;;;;;;;22.06;57.75;100002.25;5017820;28;20207;-59
2023/09/13 01:56:00;;;;;;;23.45;18.48;;;;;;;22.06;57.92;100012.75;5017489;28;21152;-59
2023/09/13 01:58:28;;;;;;;20.73;18.63;;;;;;;22.04;58.25;100010.19;5018192;28;20207;-59
2023/09/13 02:00:58;;;;;;;20.92;18.70;;;;;;;22.04;58.05;100015.44;5012956;28;20227;-58
2023/09/13 02:03:26;;;;;;;21.30;18.30;;;;;;;22.02;58.20;100021.72;5013126;28;20238;-60
2023/09/13 02:05:54;;;;;;;22.92;19.45;;;;;;;21.97;58.20;100013.28;5013011;28;20207;-59
2023/09/13 02:08:22;;;;;;;21.83;19.33;;;;;;;21.92;58.25;100014.41;5013160;28;20206;-59
2023/09/13 02:10:50;;;;;;;21.38;18.35;;;;;;;21.91;58.58;100017.13;5013290;28;20580;-59
2023/09/13 02:13:18;;;;;;;21.25;18.58;;;;;;;21.88;58.52;100012.88;5013080;28;20570;-61
2023/09/13 02:15:46;;;;;;;22.58;19.90;;;;;;;21.82;58.79;100010.63;5012874;28;20207;-60
2023/09/13 02:18:15;;;;;;;20.58;18.60;;;;;;;21.79;58.95;100009.94;5013113;28;20610;-58
2023/09/13 02:20:43;;;;;;;21.05;18.85;;;;;;;21.79;59.05;100007.31;5012536;28;20239;-59
2023/09/13 02:23:11;;;;;;;21.35;19.13;;;;;;;21.79;58.90;100005.53;5012581;28;20203;-61
2023/09/13 02:25:40;;;;;;;20.27;18.27;;;;;;;21.79;59.14;100016.03;5012967;28;20273;-58
2023/09/13 02:28:08;;;;;;;19.95;17.98;;;;;;;21.80;59.21;100007.25;4999148;28;20231;-58
2023/09/13 02:30:36;;;;;;;20.90;18.80;;;;;;;21.75;59.39;100009.28;5012066;28;20203;-60
2023/09/13 02:33:04;;;;;;;22.02;19.55;;;;;;;21.67;59.71;100016.75;5001275;28;20216;-61
2023/09/13 02:35:35;;;;;;;21.00;18.85;;;;;;;21.62;59.41;100013.56;4996936;28;20627;-60
2023/09/13 02:38:04;;;;;;;21.25;19.05;;;;;;;21.60;59.95;100007.56;5012497;28;20211;-61
2023/09/13 02:40:31;;;;;;;20.02;17.98;;;;;;;21.60;60.08;100008.41;5012687;28;20226;-60
2023/09/13 02:42:59;;;;;;;20.52;18.42;;;;;;;21.62;59.96;100009.16;5012534;28;20242;-59
2023/09/13 02:45:29;;;;;;;20.05;18.05;;;;;;;21.63;59.77;100015.25;5012344;28;20215;-59
2023/09/13 02:47:57;;;;;;;19.90;17.80;;;;;;;21.61;59.93;100015.31;5012744;28;20650;-59
2023/09/13 02:50:25;;;;;;;20.23;18.13;;;;;;;21.58;60.01;100012.91;5012561;28;20727;-59
2023/09/13 02:52:54;;;;;;;20.10;18.10;;;;;;;21.55;60.26;100007.00;5011715;28;20223;-60
2023/09/13 02:55:22;;;;;;;22.65;20.02;;;;;;;21.50;60.12;100015.09;5005680;28;20211;-59
2023/09/13 02:57:50;;;;;;;22.13;18.25;;;;;;;21.48;60.09;100011.75;5011521;28;20227;-59
2023/09/13 03:00:18;;;;;;;20.40;18.30;;;;;;;21.44;60.40;100018.94;5012298;28;20202;-60
2023/09/13 03:02:46;;;;;;;23.38;17.88;;;;;;;21.39;60.44;100012.25;5012184;28;20596;-60
2023/09/13 03:05:15;;;;;;;18.98;17.08;;;;;;;21.39;60.49;100012.25;5012268;28;20677;-59
2023/09/13 03:07:43;;;;;;;21.27;17.70;;;;;;;21.35;60.73;100015.97;5012316;28;20215;-61
2023/09/13 03:10:13;;;;;;;22.02;19.73;;;;;;;21.31;60.90;100014.44;5012246;28;20566;-58
2023/09/13 03:12:41;;;;;;;21.48;19.27;;;;;;;21.30;60.91;100013.59;5011636;28;20219;-58
2023/09/13 03:15:09;;;;;;;20.85;18.75;;;;;;;21.26;61.14;100008.63;5006423;28;20207;-60
2023/09/13 03:17:37;;;;;;;20.83;18.70;;;;;;;21.16;61.33;100011.75;5012102;28;20849;-59
2023/09/13 03:20:09;;;;;;;20.50;18.00;;;;;;;21.17;61.51;100002.97;5011707;28;20203;-59
2023/09/13 03:22:37;;;;;;;21.67;19.33;;;;;;;21.19;61.42;100008.94;5011896;28;20257;-59
2023/09/13 03:25:06;;;;;;;25.88;18.30;;;;;;;21.18;61.83;100004.66;5021421;28;20205;-60
2023/09/13 03:27:35;;;;;;;22.00;18.92;;;;;;;21.20;61.71;100007.16;5011738;28;20211;-60
2023/09/13 03:30:03;;;;;;;22.77;20.48;;;;;;;21.16;62.05;100000.41;5011778;28;20314;-60
2023/09/13 03:32:31;;;;;;;22.30;19.95;;;;;;;21.14;62.24;100007.53;5004989;28;20219;-58
2023/09/13 03:34:59;;;;;;;22.85;19.83;;;;;;;21.10;62.38;100000.75;5005696;28;20643;-59
2023/09/13 03:37:27;;;;;;;24.00;19.65;;;;;;;21.06;62.42;99999.22;5010938;28;20207;-61
2023/09/13 03:39:55;;;;;;;21.92;19.33;;;;;;;21.04;62.72;99996.72;5011959;28;20293;-61
2023/09/13 03:42:23;;;;;;;22.25;19.73;;;;;;;20.98;62.86;99991.81;5011570;28;20565;-60
2023/09/13 03:44:52;;;;;;;21.13;18.92;;;;;;;20.96;62.99;99993.69;5011810;28;20785;-60
2023/09/13 03:47:20;;;;;;;21.60;19.08;;;;;;;20.97;62.75;99992.75;5011646;28;20272;-61
2023/09/13 03:49:48;;;;;;;20.83;18.58;;;;;;;21.01;62.64;99996.88;5011445;28;20214;-61
2023/09/13 03:52:16;;;;;;;24.77;19.65;;;;;;;21.01;62.86;99983.78;5011481;28;20751;-62
2023/09/13 03:54:44;;;;;;;23.48;20.67;;;;;;;21.02;62.50;99988.06;5010958;28;20218;-59
2023/09/13 03:57:12;;;;;;;26.05;19.85;;;;;;;20.96;62.91;99986.66;5011723;28;20721;-60
2023/09/13 03:59:40;;;;;;;25.45;19.90;;;;;;;20.97;62.76;99995.34;5011610;28;20585;-59
2023/09/13 04:02:09;;;;;;;23.25;20.58;;;;;;;20.94;62.36;99990.28;5011358;28;20231;-60
2023/09/13 04:04:38;;;;;;;23.50;20.85;;;;;;;20.95;62.30;99981.50;5011233;28;20211;-59
2023/09/13 04:07:06;;;;;;;22.77;20.05;;;;;;;20.95;62.90;99994.59;5011516;28;20658;-58
2023/09/13 04:09:34;;;;;;;25.52;20.23;;;;;;;20.96;62.97;99999.75;5011567;28;20229;-61
2023/09/13 04:12:02;;;;;;;23.15;19.77;;;;;;;20.97;62.81;99995.34;5020573;28;20285;-60
2023/09/13 04:14:30;;;;;;;27.15;20.58;;;;;;;20.97;62.92;99995.34;5011355;28;20235;-59
2023/09/13 04:16:58;;;;;;;24.38;20.10;;;;;;;20.95;62.87;99997.22;5011011;28;20208;-61
2023/09/13 04:19:28;;;;;;;22.77;19.15;;;;;;;20.99;62.87;99996.97;5009713;28;20294;-61
2023/09/13 04:21:56;;;;;;;25.50;21.10;;;;;;;21.01;62.91;99996.88;4999101;28;20659;-61
2023/09/13 04:24:24;;;;;;;23.73;20.98;;;;;;;21.00;62.40;99995.19;5020537;28;20301;-59
2023/09/13 04:26:51;;;;;;;26.35;20.55;;;;;;;21.01;62.64;99999.50;5011430;28;20211;-60
2023/09/13 04:29:19;;;;;;;27.20;20.33;;;;;;;21.04;62.44;99996.72;5010917;28;20262;-59
2023/09/13 04:31:47;;;;;;;23.20;20.75;;;;;;;21.03;62.08;99994.19;5010251;28;20219;-61
2023/09/13 04:34:17;;;;;;;26.10;20.85;;;;;;;21.02;62.15;99992.47;4999060;28;20203;-60
2023/09/13 04:36:47;;;;;;;33.88;21.15;;;;;;;21.02;62.26;99995.94;5011247;28;20684;-60
2023/09/13 04:39:15;;;;;;;30.60;20.75;;;;;;;21.02;61.99;99995.94;5000829;28;22043;-60
2023/09/13 04:41:43;;;;;;;30.60;20.63;;;;;;;20.98;61.97;99989.19;5018613;28;20642;-60
2023/09/13 04:44:11;;;;;;;26.08;20.77;;;;;;;20.93;62.03;99989.44;5010667;28;20254;-61
2023/09/13 04:46:39;;;;;;;26.48;22.77;;;;;;;20.87;62.57;99994.16;5011186;28;20605;-61
2023/09/13 04:49:07;;;;;;;28.42;20.65;;;;;;;20.84;62.52;99984.72;5012246;28;20206;-59
2023/09/13 04:51:35;;;;;;;23.90;21.10;;;;;;;20.88;62.83;99990.66;5014609;28;20218;-61
2023/09/13 04:54:04;;;;;;;26.65;22.00;;;;;;;20.94;62.27;99992.91;5013589;28;20293;-61
2023/09/13 04:56:32;;;;;;;25.63;20.70;;;;;;;21.01;62.07;99990.78;5014091;28;20211;-62
2023/09/13 04:59:00;;;;;;;26.60;23.13;;;;;;;21.12;62.05;99994.50;5015875;28;20576;-60
2023/09/13 05:01:28;;;;;;;26.13;22.10;;;;;;;21.18;61.64;99993.31;5014816;28;20223;-61
2023/09/13 05:03:57;;;;;;;31.40;21.40;;;;;;;21.26;61.26;99993.72;5014113;28;20211;-62
2023/09/13 05:06:25;;;;;;;24.55;20.80;;;;;;;21.33;60.99;99991.63;5014473;28;20775;-61
2023/09/13 05:08:53;;;;;;;28.83;21.08;;;;;;;21.41;60.77;99994.66;5014094;28;20203;-63
2023/09/13 05:11:23;;;;;;;29.20;22.58;;;;;;;21.45;60.52;99988.31;5014305;28;20266;-62
2023/09/13 05:13:52;;;;;;;29.55;20.58;;;;;;;21.48;60.30;99996.00;5013981;28;20222;-61
2023/09/13 05:16:20;;;;;;;28.45;22.02;;;;;;;21.51;59.82;99992.38;5013986;28;20650;-61
2023/09/13 05:18:48;;;;;;;27.08;21.65;;;;;;;21.53;59.99;99993.94;5013905;28;20269;-61
2023/09/13 05:21:16;;;;;;;28.35;20.45;;;;;;;21.53;59.45;99999.19;5013959;28;20249;-60
2023/09/13 05:23:44;;;;;;;27.30;20.80;;;;;;;21.52;59.45;100001.91;5017889;28;20210;-59
2023/09/13 05:26:13;;;;;;;30.58;21.30;;;;;;;21.53;59.25;99996.56;5013590;28;20650;-59
2023/09/13 05:28:42;;;;;;;25.33;19.48;;;;;;;21.56;58.92;99999.03;5008531;28;20207;-59
2023/09/13 05:31:10;;;;;;;23.50;18.90;;;;;;;21.61;58.79;100001.38;5023762;28;20219;-58
2023/09/13 05:33:38;;;;;;;33.08;19.15;;;;;;;21.64;58.56;100002.03;5000490;28;20764;-59
2023/09/13 05:36:08;;;;;;;23.60;19.70;;;;;;;21.70;58.20;99990.38;5013673;28;20216;-59
2023/09/13 05:38:36;;;;;;;28.77;19.90;;;;;;;21.75;57.99;100000.56;5013610;28;20207;-60
2023/09/13 05:41:07;;;;;;;27.35;18.58;;;;;;;21.79;57.88;99994.22;5013034;28;20203;-60
2023/09/13 05:43:35;;;;;;;25.67;19.50;;;;;;;21.84;57.69;100000.06;5013352;28;20203;-61
2023/09/13 05:46:04;;;;;;;25.50;19.08;;;;;;;21.91;57.07;99996.13;5013484;28;20199;-58
2023/09/13 05:48:33;;;;;;;21.85;17.85;;;;;;;21.97;56.95;99998.38;5013685;28;20230;-60
2023/09/13 05:51:01;;;;;;;29.77;18.00;;;;;;;22.01;56.79;99989.38;5013462;28;20207;-59
2023/09/13 05:53:29;;;;;;;26.23;18.75;;;;;;;22.04;56.31;99994.44;5012761;28;20306;-60
2023/09/13 05:55:58;;;;;;;22.55;19.08;;;;;;;22.11;56.43;99995.78;5024692;28;20207;-60
2023/09/13 05:58:26;;;;;;;24.83;17.92;;;;;;;22.16;56.07;100001.59;5013362;28;20595;-60
2023/09/13 06:00:55;;;;;;;29.02;18.17;;;;;;;22.20;56.06;99997.03;5012583;28;20333;-61
2023/09/13 06:03:25;;;;;;;24.80;18.98;;;;;;;22.28;55.89;99999.22;5012462;28;20756;-59
2023/09/13 06:05:53;;;;;;;21.77;17.85;;;;;;;22.33;55.66;99994.50;5009841;28;20226;-60
2023/09/13 06:08:21;;;;;;;22.33;18.92;;;;;;;22.36;55.49;100000.41;5013112;28;20203;-59
2023/09/13 06:10:49;;;;;;;29.55;18.77;;;;;;;22.41;55.41;100013.25;5011785;28;20211;-60
2023/09/13 06:13:18;;;;;;;24.67;17.63;;;;;;;22.43;55.19;100006.16;5013486;28;20700;-61
2023/09/13 06:15:46;;;;;;;25.70;17.30;;;;;;;22.47;54.96;100005.00;5005502;28;20270;-59
2023/09/13 06:18:14;;;;;;;26.70;17.63;;;;;;;22.51;55.01;100003.03;5012208;28;20235;-59
2023/09/13 06:20:44;;;;;;;21.33;17.50;;;;;;;22.60;54.85;99991.94;5001150;28;20266;-60
2023/09/13 06:23:36;;;;;;;23.38;16.30;;;;;;;22.83;54.35;99995.78;5011063;28;20238;-60
2023/09/13 06:26:04;;;;;;;24.30;15.68;;;;;;;23.20;53.49;99993.44;5012600;28;20235;-61
2023/09/13 06:28:33;;;;;;;27.20;15.90;;;;;;;23.57;52.46;99998.00;4999250;28;20658;-59
2023/09/13 06:31:02;;;;;;;23.38;15.88;;;;;;;23.94;51.27;99998.19;5012412;28;20290;-58
2023/09/13 06:33:32;;;;;;;22.38;15.40;;;;;;;24.37;49.59;100005.75;4998927;28;20270;-59
2023/09/13 06:36:05;;;;;;;18.88;15.02;;;;;;;24.75;49.04;100000.47;5012687;28;20199;-59
2023/09/13 06:38:34;;;;;;;23.92;14.57;;;;;;;25.12;48.20;99994.38;5012300;28;20250;-61
2023/09/13 06:41:02;;;;;;;16.90;15.18;;;;;;;25.45;47.20;99996.31;5019651;28;20199;-59
2023/09/13 06:43:30;;;;;;;21.48;15.93;;;;;;;25.76;46.05;100000.13;5012447;28;20595;-60
2023/09/13 06:46:01;;;;;;;21.67;15.45;;;;;;;26.00;45.48;99997.47;5011305;28;20626;-60
2023/09/13 06:48:33;;;;;;;19.48;16.05;;;;;;;26.22;44.50;99999.31;5021147;28;20238;-60
2023/09/13 06:51:02;;;;;;;17.20;14.65;;;;;;;26.39;44.32;100001.44;5007627;28;20207;-60
2023/09/13 06:53:35;;;;;;;21.25;15.98;;;;;;;26.56;44.35;100008.09;5004784;28;20712;-59
2023/09/13 06:56:04;;;;;;;20.63;15.82;;;;;;;26.61;43.82;100008.56;5012418;28;20645;-59
2023/09/13 06:58:37;;;;;;;19.08;15.98;;;;;;;26.68;44.22;100009.75;5012258;28;20211;-60
2023/09/13 07:01:09;;;;;;;20.85;15.52;;;;;;;26.85;43.67;100008.44;5012123;28;20282;-61
2023/09/13 07:03:40;;;;;;;20.08;15.63;;;;;;;27.01;43.49;99996.63;5012134;28;20249;-60
2023/09/13 07:06:17;;;;;;;19.88;15.32;;;;;;;27.28;42.62;100004.13;5012215;28;20203;-61
2023/09/13 07:08:47;;;;;;;19.95;14.43;;;;;;;27.44;41.90;100000.09;5012232;28;20261;-61
2023/09/13 07:11:16;;;;;;;23.73;15.30;;;;;;;27.63;41.73;99999.41;5016976;28;20609;-61
2023/09/13 07:13:44;;;;;;;21.25;15.50;;;;;;;27.84;41.30;99995.97;5008596;28;20685;-59
2023/09/13 07:16:12;;;;;;;18.60;14.55;;;;;;;28.03;40.62;99997.91;5011833;28;20661;-60
2023/09/13 07:18:40;;;;;;;16.15;13.45;;;;;;;28.22;40.48;99999.81;5011804;28;20209;-61
2023/09/13 07:21:08;;;;;;;16.33;13.30;;;;;;;28.38;39.77;99994.88;5011274;28;20243;-61
2023/09/13 07:23:36;;;;;;;16.00;13.27;;;;;;;28.58;39.64;99996.63;5011740;28;20242;-60
2023/09/13 07:26:06;;;;;;;14.05;12.27;;;;;;;28.79;38.67;99993.06;5012096;28;20680;-60
2023/09/13 07:28:34;;;;;;;16.77;12.52;;;;;;;29.00;38.27;99990.34;4998440;28;20241;-62
2023/09/13 07:31:06;;;;;;;13.27;11.98;;;;;;;29.17;37.42;99987.03;5011611;28;20211;-61
2023/09/13 07:33:35;;;;;;;16.00;12.32;;;;;;;29.34;37.25;99996.09;4998015;28;20623;-59
2023/09/13 07:36:03;;;;;;;16.15;11.68;;;;;;;29.46;36.22;99997.66;5011841;28;20199;-58
2023/09/13 07:38:31;;;;;;;15.57;11.25;;;;;;;29.56;36.28;99987.00;5011388;28;20326;-59
2023/09/13 07:40:59;;;;;;;14.70;11.82;;;;;;;30.32;40.92;100001.16;5021850;28;20199;-61
2023/09/13 07:43:28;;;;;;;15.80;11.60;;;;;;;32.78;33.31;99992.59;5011660;28;20206;-63
2023/09/13 07:45:56;;;;;;;16.90;11.75;;;;;;;35.19;28.21;99990.88;5011060;28;20314;-61
2023/09/13 07:48:26;;;;;;;15.43;11.10;;;;;;;37.26;24.43;99982.88;5011409;28;20203;-65
2023/09/13 07:50:58;;;;;;;12.15;10.73;;;;;;;39.03;22.39;99994.13;5011866;28;20674;-64
2023/09/13 07:53:26;;;;;;;13.55;10.05;;;;;;;40.38;20.87;99989.28;5011491;28;20207;-66
2023/09/13 07:55:59;;;;;;;10.73;9.63;;;;;;;41.45;19.42;99989.53;5011773;28;20674;-58
2023/09/13 07:58:29;;;;;;;15.73;9.30;;;;;;;42.56;18.30;99999.41;5011759;28;20301;-58
2023/09/13 08:01:02;;;;;;;13.75;9.20;;;;;;;43.15;17.23;99992.38;5011072;28;20199;-59
2023/09/13 08:03:34;;;;;;;12.20;9.07;;;;;;;43.46;16.71;99993.13;5011426;28;20704;-61
2023/09/13 08:06:04;;;;;;;11.48;9.55;;;;;;;43.96;16.29;99992.69;5011082;28;20206;-58
2023/09/13 08:08:33;;;;;;;10.15;9.15;;;;;;;44.40;16.06;99989.56;5011111;28;20261;-58
2023/09/13 08:11:01;;;;;;;11.23;9.18;;;;;;;44.99;15.64;99990.94;5011220;28;20214;-58
2023/09/13 08:13:31;;;;;;;9.45;8.52;;;;;;;45.13;14.95;99988.78;5010895;28;20285;-58
2023/09/13 08:15:59;;;;;;;13.40;9.00;;;;;;;45.25;14.96;99988.69;5010966;28;20594;-60
2023/09/13 08:18:27;;;;;;;9.10;7.68;;;;;;;44.94;14.79;99985.44;5010969;28;20211;-59
2023/09/13 08:20:55;;;;;;;9.52;8.18;;;;;;;44.94;14.94;99992.78;5010935;28;20234;-60
2023/09/13 08:23:24;;;;;;;9.57;8.48;;;;;;;45.17;14.87;99992.66;5012911;28;20226;-60
2023/09/13 08:25:52;;;;;;;14.25;8.38;;;;;;;45.42;14.52;99996.84;5015165;28;20721;-60
2023/09/13 08:28:20;;;;;;;8.43;7.72;;;;;;;45.13;14.28;99998.84;5014808;28;20225;-61
2023/09/13 08:30:49;;;;;;;9.88;8.05;;;;;;;44.20;15.00;100003.53;5014689;28;20209;-62
2023/09/13 08:33:17;;;;;;;8.70;7.78;;;;;;;42.88;16.13;100012.78;5001677;28;20273;-62
2023/09/13 08:35:46;;;;;;;18.42;8.23;;;;;;;41.85;16.63;99989.19;5014451;28;20225;-62
2023/09/13 08:38:14;;;;;;;8.80;8.00;;;;;;;41.27;17.67;100004.63;5015022;28;20203;-61
2023/09/13 08:40:45;;;;;;;11.07;8.35;;;;;;;41.17;18.06;99996.19;5022038;28;20203;-60
2023/09/13 08:43:16;;;;;;;10.00;8.65;;;;;;;40.86;18.73;99994.25;5030284;28;20220;-59
2023/09/13 08:45:50;;;;;;;12.52;8.52;;;;;;;40.41;19.08;100006.94;5015930;28;20191;-61
2023/09/13 08:48:18;;;;;;;11.75;8.60;;;;;;;39.78;19.48;99996.69;5015039;28;20834;-59
2023/09/13 08:50:48;;;;;;;10.18;7.63;;;;;;;38.96;20.45;99998.66;5014210;28;20209;-60
2023/09/13 08:53:17;;;;;;;11.02;7.55;;;;;;;38.21;20.87;99992.31;5014366;28;20206;-59
2023/09/13 08:55:47;;;;;;;9.10;8.15;;;;;;;37.57;21.82;99987.09;5014095;28;20218;-64
2023/09/13 08:58:15;;;;;;;11.15;7.90;;;;;;;36.83;22.93;99990.91;5020742;28;20238;-61
2023/09/13 09:00:46;;;;;;;12.60;8.70;;;;;;;36.25;24.49;99989.94;5013987;28;20218;-60
2023/09/13 09:03:17;;;;;;;10.75;8.57;;;;;;;35.69;24.68;99981.47;5014222;28;20286;-61
2023/09/13 09:05:46;;;;;;;13.30;8.68;;;;;;;35.31;25.05;99984.09;5014049;28;20274;-62
2023/09/13 09:08:15;;;;;;;10.95;8.30;;;;;;;35.07;25.78;99983.28;5024832;28;20234;-62
2023/09/13 09:10:44;;;;;;;13.52;8.55;;;;;;;34.76;25.04;99985.09;5014165;28;20298;-62
2023/09/13 09:13:13;;;;;;;8.73;7.82;;;;;;;34.47;25.61;99986.56;5014212;28;20238;-57
2023/09/13 09:15:41;;;;;;;12.43;8.10;;;;;;;33.95;25.59;99981.69;5013709;28;20267;-60
2023/09/13 09:18:11;;;;;;;8.27;7.47;;;;;;;33.61;27.17;99985.41;5013897;28;20257;-60
2023/09/13 09:20:41;;;;;;;10.80;8.48;;;;;;;33.51;27.39;99984.75;5002663;28;20279;-59
2023/09/13 09:23:10;;;;;;;13.75;7.78;;;;;;;33.56;27.94;99981.56;5011665;28;20214;-61
2023/09/13 09:25:39;;;;;;;9.45;7.90;;;;;;;33.58;27.89;99980.41;5013887;28;20620;-62
2023/09/13 09:28:07;;;;;;;13.05;8.07;;;;;;;33.52;27.91;99982.91;5013561;28;20207;-58
2023/09/13 09:30:36;;;;;;;9.00;7.85;;;;;;;33.43;27.18;99972.22;5013909;28;20207;-59
2023/09/13 09:33:05;;;;;;;10.85;7.65;;;;;;;33.37;27.35;99983.56;5002684;28;20674;-60
2023/09/13 09:35:34;;;;;;;7.97;7.18;;;;;;;33.21;27.03;99974.69;5010547;28;20687;-60
2023/09/13 09:38:04;;;;;;;12.05;7.82;;;;;;;32.99;26.67;99973.47;5025432;28;20273;-62
2023/09/13 09:40:38;;;;;;;10.50;7.35;;;;;;;32.89;27.40;99965.63;5022524;28;20562;-60
2023/09/13 09:43:09;;;;;;;8.73;7.20;;;;;;;32.88;27.86;99964.78;5013801;28;20264;-61
2023/09/13 09:45:37;;;;;;;7.43;6.72;;;;;;;32.74;27.25;99961.91;5013236;28;20218;-61
2023/09/13 09:48:05;;;;;;;10.85;7.97;;;;;;;32.38;28.26;99954.91;5013244;28;20199;-61
2023/09/13 09:50:34;;;;;;;10.90;8.02;;;;;;;32.11;28.98;99961.31;5013305;28;20217;-60
2023/09/13 09:53:10;;;;;;;14.82;8.52;;;;;;;32.09;29.11;99965.13;5013399;28;20215;-60
2023/09/13 09:55:38;;;;;;;10.30;8.45;;;;;;;32.15;28.47;99964.50;5013118;28;20222;-60
2023/09/13 09:58:06;;;;;;;9.05;7.70;;;;;;;32.27;28.55;99967.72;5013288;28;20314;-62
2023/09/13 10:00:46;;;;;;;7.97;7.25;;;;;;;32.45;27.86;99960.47;5013423;28;20207;-58
2023/09/13 10:03:17;;;;;;;9.05;8.07;;;;;;;32.58;27.92;99950.16;5013673;28;20245;-61
2023/09/13 10:05:53;;;;;;;10.90;7.65;;;;;;;32.75;27.39;99950.22;5022457;28;20292;-65
2023/09/13 10:08:42;;;;;;;9.20;8.05;;;;;;;32.79;27.37;99951.56;5012979;28;20203;-61
2023/09/13 10:11:17;;;;;;;9.77;7.95;;;;;;;32.79;27.47;99941.72;5017030;28;20211;-63
2023/09/13 10:13:46;;;;;;;7.72;7.07;;;;;;;32.97;26.94;99944.28;5013167;28;20206;-60
2023/09/13 10:16:16;;;;;;;9.00;7.18;;;;;;;33.26;26.33;99940.31;5012336;28;20310;-61
2023/09/13 10:18:46;;;;;;;9.55;7.40;;;;;;;33.35;26.16;99942.81;5012663;28;20207;-61
2023/09/13 10:21:16;;;;;;;7.95;7.15;;;;;;;33.47;26.40;99935.31;5012452;28;20255;-62
2023/09/13 10:23:51;;;;;;;9.10;7.53;;;;;;;33.54;26.55;99935.47;5012608;28;20215;-62
2023/09/13 10:26:20;;;;;;;8.68;7.75;;;;;;;33.74;26.14;99931.44;5012718;28;20203;-61
2023/09/13 10:28:52;;;;;;;10.00;7.20;;;;;;;34.03;25.82;99924.72;5012342;28;20203;-61
2023/09/13 10:31:27;;;;;;;9.07;7.70;;;;;;;34.53;25.54;99920.81;5012505;28;20254;-59
2023/09/13 10:34:01;;;;;;;8.77;7.13;;;;;;;34.95;24.71;99924.94;4998602;28;20199;-61
2023/09/13 10:36:32;;;;;;;8.30;7.50;;;;;;;35.26;24.11;99928.38;5018988;28;20344;-58
2023/09/13 10:39:12;;;;;;;10.55;7.55;;;;;;;35.50;23.66;99924.69;5013432;28;20689;-58
2023/09/13 10:41:47;;;;;;;8.98;7.35;;;;;;;35.61;23.51;99917.19;5016379;28;20555;-61
2023/09/13 10:44:15;;;;;;;8.15;7.28;;;;;;;35.77;23.12;99915.19;5011551;28;20255;-60
2023/09/13 10:46:44;;;;;;;8.43;7.35;;;;;;;35.70;22.58;99924.13;5012389;28;20207;-62
2023/09/13 10:49:12;;;;;;;7.78;6.60;;;;;;;35.37;22.73;99924.44;5011979;28;20258;-62
2023/09/13 10:51:42;;;;;;;7.75;7.00;;;;;;;34.91;23.22;99923.59;5011993;28;20298;-61
2023/09/13 10:54:15;;;;;;;8.40;7.55;;;;;;;34.60;23.75;99917.28;5012208;28;20662;-60
2023/09/13 10:56:44;;;;;;;8.45;6.72;;;;;;;34.37;24.58;99925.22;5012200;28;20211;-60
2023/09/13 10:59:17;;;;;;;8.07;6.95;;;;;;;34.34;24.89;99924.75;5011833;28;20210;-61
2023/09/13 11:01:46;;;;;;;8.93;7.68;;;;;;;34.44;25.02;99914.66;5015784;28;20211;-62
2023/09/13 11:04:14;;;;;;;11.68;7.93;;;;;;;34.33;24.55;99920.41;5015408;28;20262;-61
2023/09/13 11:06:44;;;;;;;8.73;7.63;;;;;;;34.05;24.84;99912.81;5012228;28;20733;-59
2023/09/13 11:09:15;;;;;;;11.88;8.18;;;;;;;33.64;25.22;99915.59;5012264;28;20239;-60
2023/09/13 11:11:48;;;;;;;9.00;7.03;;;;;;;33.31;26.09;99917.44;5012049;28;20684;-57
2023/09/13 11:14:19;;;;;;;13.48;7.35;;;;;;;33.08;26.20;99911.94;5011917;28;20219;-59
2023/09/13 11:16:47;;;;;;;8.40;7.60;;;;;;;33.05;26.36;99912.25;5011917;28;20227;-58
2023/09/13 11:19:15;;;;;;;11.48;7.57;;;;;;;33.06;26.56;99905.09;5011699;28;20219;-59
2023/09/13 11:21:49;;;;;;;8.02;7.30;;;;;;;33.07;26.78;99907.59;4997792;28;20258;-61
2023/09/13 11:24:38;;;;;;;9.10;7.45;;;;;;;33.09;26.54;99907.44;5011867;28;20797;-60
2023/09/13 11:27:26;;;;;;;8.27;7.18;;;;;;;33.12;26.69;99902.59;5014382;28;20207;-58
2023/09/13 11:29:58;;;;;;;9.68;7.60;;;;;;;33.15;26.82;99899.59;5011784;28;20670;-58
2023/09/13 11:32:31;;;;;;;10.50;7.55;;;;;;;33.23;26.66;99903.25;5005495;28;20214;-58
2023/09/13 11:35:00;;;;;;;9.95;7.38;;;;;;;33.28;26.32;99909.75;5005268;28;20572;-59
2023/09/13 11:37:32;;;;;;;11.45;7.75;;;;;;;33.25;25.96;99911.91;5011299;28;20258;-59